sensor_id;sensor_type;location;lat;lon;timestamp;pressure;altitude;pressure_sealevel;temperature;humidity
45621;BME280;31345;51.522;10.702;2023-01-04T00:02:25;100035.53;;;0.41;100.00
45621;BME280;31345;51.522;10.702;2023-01-04T00:04:53;100031.31;;;0.33;100.00
45621;BME280;31345;51.522;10.702;2023-01-04T00:07:22;100022.72;;;0.36;100.00
45621;BME280;31345;51.522;10.702;2023-01-04T00:09:50;100026.13;;;0.37;100.00
45621;BME280;31345;51.522;10.702;2023-01-04T00:12:17;100032.03;;;0.50;100.00
45621;BME280;31345;51.522;10.702;2023-01-04T00:14:45;100025.34;;;0.27;100.00
45621;BME280;31345;51.522;10.702;2023-01-04T00:17:14;100018.34;;;0.46;100.00
45621;BME280;31345;51.522;10.702;2023-01-04T00:19:42;100020.19;;;0.31;100.00
45621;BME280;31345;51.522;10.702;2023-01-04T00:22:10;100012.47;;;0.30;100.00
45621;BME280;31345;51.522;10.702;2023-01-04T00:24:37;100017.50;;;0.42;100.00
45621;BME280;31345;51.522;10.702;2023-01-04T00:27:05;100002.84;;;0.52;100.00
45621;BME280;31345;51.522;10.702;2023-01-04T00:29:33;99998.69;;;0.37;100.00
45621;BME280;31345;51.522;10.702;2023-01-04T00:32:01;99994.22;;;0.56;100.00
45621;BME280;31345;51.522;10.702;2023-01-04T00:34:30;99996.91;;;0.44;100.00
45621;BME280;31345;51.522;10.702;2023-01-04T00:36:58;99992.69;;;0.35;100.00
45621;BME280;31345;51.522;10.702;2023-01-04T00:39:26;99981.44;;;0.49;100.00
45621;BME280;31345;51.522;10.702;2023-01-04T00:41:55;99979.81;;;0.38;100.00
45621;BME280;31345;51.522;10.702;2023-01-04T00:44:31;99989.09;;;0.55;100.00
45621;BME280;31345;51.522;10.702;2023-01-04T00:47:01;99976.19;;;0.58;100.00
45621;BME280;31345;51.522;10.702;2023-01-04T00:49:31;99982.59;;;0.16;100.00
45621;BME280;31345;51.522;10.702;2023-01-04T00:51:59;99979.94;;;0.27;100.00
45621;BME280;31345;51.522;10.702;2023-01-04T00:54:27;99973.81;;;0.38;100.00
45621;BME280;31345;51.522;10.702;2023-01-04T00:56:55;99964.91;;;0.70;100.00
45621;BME280;31345;51.522;10.702;2023-01-04T00:59:22;99968.44;;;0.61;100.00
45621;BME280;31345;51.522;10.702;2023-01-04T01:01:50;99970.00;;;0.76;100.00
45621;BME280;31345;51.522;10.702;2023-01-04T01:04:20;99965.81;;;0.66;100.00
45621;BME280;31345;51.522;10.702;2023-01-04T01:06:50;99962.53;;;0.54;100.00
45621;BME280;31345;51.522;10.702;2023-01-04T01:09:18;99964.28;;;0.49;100.00
45621;BME280;31345;51.522;10.702;2023-01-04T01:11:47;99964.38;;;0.40;100.00
45621;BME280;31345;51.522;10.702;2023-01-04T01:14:17;99966.53;;;0.77;100.00
45621;BME280;31345;51.522;10.702;2023-01-04T01:16:46;99970.03;;;0.71;100.00
45621;BME280;31345;51.522;10.702;2023-01-04T01:19:14;99963.16;;;0.75;100.00
45621;BME280;31345;51.522;10.702;2023-01-04T01:21:42;99958.03;;;0.70;100.00
45621;BME280;31345;51.522;10.702;2023-01-04T01:24:14;99953.47;;;0.96;100.00
45621;BME280;31345;51.522;10.702;2023-01-04T01:26:42;99947.59;;;0.84;100.00
45621;BME280;31345;51.522;10.702;2023-01-04T01:29:10;99945.72;;;0.97;100.00
45621;BME280;31345;51.522;10.702;2023-01-04T01:31:39;99939.78;;;0.92;100.00
45621;BME280;31345;51.522;10.702;2023-01-04T01:34:07;99930.50;;;0.77;100.00
45621;BME280;31345;51.522;10.702;2023-01-04T01:36:35;99928.78;;;0.78;100.00
45621;BME280;31345;51.522;10.702;2023-01-04T01:39:03;99926.09;;;0.89;100.00
45621;BME280;31345;51.522;10.702;2023-01-04T01:41:33;99917.47;;;0.91;100.00
45621;BME280;31345;51.522;10.702;2023-01-04T01:44:04;99914.84;;;0.96;100.00
45621;BME280;31345;51.522;10.702;2023-01-04T01:46:34;99919.09;;;0.97;100.00
45621;BME280;31345;51.522;10.702;2023-01-04T01:49:09;99912.31;;;0.91;100.00
45621;BME280;31345;51.522;10.702;2023-01-04T01:51:40;99906.19;;;1.00;100.00
45621;BME280;31345;51.522;10.702;2023-01-04T01:54:12;99895.88;;;1.03;100.00
45621;BME280;31345;51.522;10.702;2023-01-04T01:56:44;99888.41;;;0.81;100.00
45621;BME280;31345;51.522;10.702;2023-01-04T01:59:13;99890.94;;;0.84;100.00
45621;BME280;31345;51.522;10.702;2023-01-04T02:01:42;99895.22;;;0.85;100.00
45621;BME280;31345;51.522;10.702;2023-01-04T02:04:10;99884.09;;;0.83;100.00
45621;BME280;31345;51.522;10.702;2023-01-04T02:06:44;99874.56;;;0.92;100.00
45621;BME280;31345;51.522;10.702;2023-01-04T02:09:13;99866.69;;;1.03;100.00
45621;BME280;31345;51.522;10.702;2023-01-04T02:11:42;99864.94;;;1.06;100.00
45621;BME280;31345;51.522;10.702;2023-01-04T02:14:11;99861.59;;;0.98;100.00
45621;BME280;31345;51.522;10.702;2023-01-04T02:17:03;99860.63;;;1.04;100.00
45621;BME280;31345;51.522;10.702;2023-01-04T02:26:05;99843.44;;;1.07;100.00
45621;BME280;31345;51.522;10.702;2023-01-04T02:28:56;99837.59;;;0.96;100.00
45621;BME280;31345;51.522;10.702;2023-01-04T02:31:35;99820.31;;;1.04;100.00
45621;BME280;31345;51.522;10.702;2023-01-04T02:34:12;99817.91;;;0.92;100.00
45621;BME280;31345;51.522;10.702;2023-01-04T02:36:52;99823.03;;;0.95;100.00
45621;BME280;31345;51.522;10.702;2023-01-04T02:39:33;99803.94;;;1.08;100.00
45621;BME280;31345;51.522;10.702;2023-01-04T02:42:06;99804.81;;;1.07;100.00
45621;BME280;31345;51.522;10.702;2023-01-04T02:44:41;99801.03;;;1.30;100.00
45621;BME280;31345;51.522;10.702;2023-01-04T02:47:26;99799.50;;;1.17;100.00
45621;BME280;31345;51.522;10.702;2023-01-04T02:50:22;99778.66;;;1.32;100.00
45621;BME280;31345;51.522;10.702;2023-01-04T02:53:04;99773.25;;;1.48;100.00
45621;BME280;31345;51.522;10.702;2023-01-04T02:55:46;99773.72;;;1.69;100.00
45621;BME280;31345;51.522;10.702;2023-01-04T02:58:26;99764.22;;;1.72;100.00
45621;BME280;31345;51.522;10.702;2023-01-04T03:01:04;99758.41;;;1.61;100.00
45621;BME280;31345;51.522;10.702;2023-01-04T03:03:54;99750.38;;;1.78;100.00
45621;BME280;31345;51.522;10.702;2023-01-04T03:06:46;99747.91;;;1.72;100.00
45621;BME280;31345;51.522;10.702;2023-01-04T03:09:21;99735.94;;;1.68;100.00
45621;BME280;31345;51.522;10.702;2023-01-04T03:11:54;99726.50;;;1.68;100.00
45621;BME280;31345;51.522;10.702;2023-01-04T03:14:46;99734.03;;;1.79;100.00
45621;BME280;31345;51.522;10.702;2023-01-04T03:17:19;99721.53;;;1.56;100.00
45621;BME280;31345;51.522;10.702;2023-01-04T03:19:51;99719.91;;;1.52;100.00
45621;BME280;31345;51.522;10.702;2023-01-04T03:22:31;99719.72;;;1.64;100.00
45621;BME280;31345;51.522;10.702;2023-01-04T03:25:21;99711.13;;;1.62;100.00
45621;BME280;31345;51.522;10.702;2023-01-04T03:28:10;99704.41;;;1.53;100.00
45621;BME280;31345;51.522;10.702;2023-01-04T03:30:59;99691.44;;;1.59;100.00
45621;BME280;31345;51.522;10.702;2023-01-04T03:33:46;99683.00;;;1.94;100.00
45621;BME280;31345;51.522;10.702;2023-01-04T03:36:45;99680.44;;;1.94;100.00
45621;BME280;31345;51.522;10.702;2023-01-04T03:39:19;99672.91;;;1.83;100.00
45621;BME280;31345;51.522;10.702;2023-01-04T03:42:14;99661.72;;;1.84;100.00
45621;BME280;31345;51.522;10.702;2023-01-04T03:45:10;99667.69;;;1.87;100.00
45621;BME280;31345;51.522;10.702;2023-01-04T03:48:02;99658.78;;;2.01;100.00
45621;BME280;31345;51.522;10.702;2023-01-04T03:50:52;99653.81;;;1.93;100.00
45621;BME280;31345;51.522;10.702;2023-01-04T03:53:23;99649.09;;;2.12;100.00
45621;BME280;31345;51.522;10.702;2023-01-04T03:55:53;99640.06;;;2.32;100.00
45621;BME280;31345;51.522;10.702;2023-01-04T03:58:24;99631.72;;;2.21;100.00
45621;BME280;31345;51.522;10.702;2023-01-04T04:00:52;99634.31;;;2.57;100.00
45621;BME280;31345;51.522;10.702;2023-01-04T04:03:29;99619.53;;;2.99;100.00
45621;BME280;31345;51.522;10.702;2023-01-04T04:06:14;99615.81;;;3.41;100.00
45621;BME280;31345;51.522;10.702;2023-01-04T04:09:01;99611.63;;;3.67;100.00
45621;BME280;31345;51.522;10.702;2023-01-04T04:11:28;99593.75;;;4.18;100.00
45621;BME280;31345;51.522;10.702;2023-01-04T04:13:57;99599.88;;;4.42;100.00
45621;BME280;31345;51.522;10.702;2023-01-04T04:16:26;99598.16;;;4.43;100.00
45621;BME280;31345;51.522;10.702;2023-01-04T04:18:54;99591.59;;;4.58;100.00
45621;BME280;31345;51.522;10.702;2023-01-04T04:21:21;99580.59;;;4.78;100.00
45621;BME280;31345;51.522;10.702;2023-01-04T04:23:49;99572.72;;;5.07;100.00
45621;BME280;31345;51.522;10.702;2023-01-04T04:26:18;99567.41;;;5.34;100.00
45621;BME280;31345;51.522;10.702;2023-01-04T04:28:46;99559.41;;;5.16;100.00
45621;BME280;31345;51.522;10.702;2023-01-04T04:31:13;99562.53;;;5.26;100.00
45621;BME280;31345;51.522;10.702;2023-01-04T04:33:41;99553.59;;;5.35;100.00
45621;BME280;31345;51.522;10.702;2023-01-04T04:36:09;99555.94;;;5.41;100.00
45621;BME280;31345;51.522;10.702;2023-01-04T04:38:36;99551.00;;;5.35;100.00
45621;BME280;31345;51.522;10.702;2023-01-04T04:41:07;99537.50;;;5.49;100.00
45621;BME280;31345;51.522;10.702;2023-01-04T04:43:54;99537.97;;;5.36;100.00
45621;BME280;31345;51.522;10.702;2023-01-04T04:46:22;99535.06;;;5.44;100.00
45621;BME280;31345;51.522;10.702;2023-01-04T04:48:49;99516.91;;;5.44;100.00
45621;BME280;31345;51.522;10.702;2023-01-04T04:51:17;99511.63;;;5.47;100.00
45621;BME280;31345;51.522;10.702;2023-01-04T04:53:45;99513.91;;;5.55;100.00
45621;BME280;31345;51.522;10.702;2023-01-04T04:56:13;99509.00;;;5.71;100.00
45621;BME280;31345;51.522;10.702;2023-01-04T04:58:41;99498.19;;;5.60;100.00
45621;BME280;31345;51.522;10.702;2023-01-04T05:01:10;99500.53;;;5.66;100.00
45621;BME280;31345;51.522;10.702;2023-01-04T05:03:38;99486.41;;;5.51;100.00
45621;BME280;31345;51.522;10.702;2023-01-04T05:06:05;99475.88;;;5.56;100.00
45621;BME280;31345;51.522;10.702;2023-01-04T05:08:33;99483.97;;;5.46;100.00
45621;BME280;31345;51.522;10.702;2023-01-04T05:11:04;99474.25;;;5.53;100.00
45621;BME280;31345;51.522;10.702;2023-01-04T05:13:32;99456.91;;;5.54;100.00
45621;BME280;31345;51.522;10.702;2023-01-04T05:16:00;99453.78;;;5.68;100.00
45621;BME280;31345;51.522;10.702;2023-01-04T05:18:29;99446.13;;;5.65;100.00
45621;BME280;31345;51.522;10.702;2023-01-04T05:20:58;99434.22;;;5.81;100.00
45621;BME280;31345;51.522;10.702;2023-01-04T05:23:26;99440.69;;;5.71;100.00
45621;BME280;31345;51.522;10.702;2023-01-04T05:25:56;99434.84;;;5.66;100.00
45621;BME280;31345;51.522;10.702;2023-01-04T05:28:25;99434.25;;;5.59;100.00
45621;BME280;31345;51.522;10.702;2023-01-04T05:30:53;99434.34;;;5.78;100.00
45621;BME280;31345;51.522;10.702;2023-01-04T05:33:22;99435.25;;;5.77;100.00
45621;BME280;31345;51.522;10.702;2023-01-04T05:35:52;99439.59;;;5.76;100.00
45621;BME280;31345;51.522;10.702;2023-01-04T05:38:21;99430.91;;;5.78;100.00
45621;BME280;31345;51.522;10.702;2023-01-04T05:40:49;99436.09;;;5.98;100.00
45621;BME280;31345;51.522;10.702;2023-01-04T05:43:18;99433.13;;;5.87;100.00
45621;BME280;31345;51.522;10.702;2023-01-04T05:45:47;99432.00;;;6.15;100.00
45621;BME280;31345;51.522;10.702;2023-01-04T05:48:15;99433.28;;;6.05;100.00
45621;BME280;31345;51.522;10.702;2023-01-04T05:50:43;99433.91;;;6.10;100.00
45621;BME280;31345;51.522;10.702;2023-01-04T05:53:14;99424.16;;;5.94;100.00
45621;BME280;31345;51.522;10.702;2023-01-04T05:55:42;99415.38;;;6.19;100.00
45621;BME280;31345;51.522;10.702;2023-01-04T05:58:10;99418.53;;;6.26;100.00
45621;BME280;31345;51.522;10.702;2023-01-04T06:00:38;99417.44;;;6.32;100.00
45621;BME280;31345;51.522;10.702;2023-01-04T06:03:05;99423.94;;;6.21;100.00
45621;BME280;31345;51.522;10.702;2023-01-04T06:05:33;99421.28;;;6.23;100.00
45621;BME280;31345;51.522;10.702;2023-01-04T06:08:01;99423.69;;;6.07;100.00
45621;BME280;31345;51.522;10.702;2023-01-04T06:10:30;99422.25;;;6.20;100.00
45621;BME280;31345;51.522;10.702;2023-01-04T06:12:57;99420.63;;;6.18;100.00
45621;BME280;31345;51.522;10.702;2023-01-04T06:15:25;99413.81;;;6.15;100.00
45621;BME280;31345;51.522;10.702;2023-01-04T06:17:52;99413.09;;;6.11;100.00
45621;BME280;31345;51.522;10.702;2023-01-04T06:20:21;99407.59;;;6.19;100.00
45621;BME280;31345;51.522;10.702;2023-01-04T06:22:48;99410.94;;;6.21;100.00
45621;BME280;31345;51.522;10.702;2023-01-04T06:25:16;99395.91;;;6.09;100.00
45621;BME280;31345;51.522;10.702;2023-01-04T06:27:45;99401.59;;;6.17;100.00
45621;BME280;31345;51.522;10.702;2023-01-04T06:30:13;99392.00;;;6.19;100.00
45621;BME280;31345;51.522;10.702;2023-01-04T06:32:40;99393.41;;;6.26;100.00
45621;BME280;31345;51.522;10.702;2023-01-04T06:35:08;99388.88;;;6.32;100.00
45621;BME280;31345;51.522;10.702;2023-01-04T06:37:36;99378.97;;;6.21;100.00
45621;BME280;31345;51.522;10.702;2023-01-04T06:40:04;99375.91;;;6.32;100.00
45621;BME280;31345;51.522;10.702;2023-01-04T06:42:32;99369.53;;;6.39;100.00
45621;BME280;31345;51.522;10.702;2023-01-04T06:45:14;99364.75;;;6.49;100.00
45621;BME280;31345;51.522;10.702;2023-01-04T06:47:41;99365.59;;;6.49;100.00
45621;BME280;31345;51.522;10.702;2023-01-04T06:50:09;99371.06;;;6.43;100.00
45621;BME280;31345;51.522;10.702;2023-01-04T06:52:37;99365.22;;;6.38;100.00
45621;BME280;31345;51.522;10.702;2023-01-04T06:55:06;99362.53;;;6.20;100.00
45621;BME280;31345;51.522;10.702;2023-01-04T06:57:34;99355.72;;;6.18;100.00
45621;BME280;31345;51.522;10.702;2023-01-04T07:00:02;99334.47;;;6.28;100.00
45621;BME280;31345;51.522;10.702;2023-01-04T07:02:32;99319.88;;;6.26;100.00
45621;BME280;31345;51.522;10.702;2023-01-04T07:05:00;99304.50;;;6.21;100.00
45621;BME280;31345;51.522;10.702;2023-01-04T07:07:28;99288.00;;;6.22;100.00
45621;BME280;31345;51.522;10.702;2023-01-04T07:09:56;99269.19;;;6.17;100.00
45621;BME280;31345;51.522;10.702;2023-01-04T07:12:23;99286.75;;;6.31;100.00
45621;BME280;31345;51.522;10.702;2023-01-04T07:14:51;99300.09;;;6.23;100.00
45621;BME280;31345;51.522;10.702;2023-01-04T07:17:19;99296.78;;;6.20;100.00
45621;BME280;31345;51.522;10.702;2023-01-04T07:19:50;99303.38;;;6.27;100.00
45621;BME280;31345;51.522;10.702;2023-01-04T07:22:18;99308.25;;;6.35;100.00
45621;BME280;31345;51.522;10.702;2023-01-04T07:24:47;99302.56;;;6.46;100.00
45621;BME280;31345;51.522;10.702;2023-01-04T07:27:19;99288.84;;;6.42;100.00
45621;BME280;31345;51.522;10.702;2023-01-04T07:29:46;99302.13;;;6.36;100.00
45621;BME280;31345;51.522;10.702;2023-01-04T07:32:14;99301.09;;;6.40;100.00
45621;BME280;31345;51.522;10.702;2023-01-04T07:34:42;99297.75;;;6.36;100.00
45621;BME280;31345;51.522;10.702;2023-01-04T07:37:12;99301.06;;;6.59;100.00
45621;BME280;31345;51.522;10.702;2023-01-04T07:39:41;99295.75;;;6.62;100.00
45621;BME280;31345;51.522;10.702;2023-01-04T07:42:09;99298.34;;;6.43;100.00
45621;BME280;31345;51.522;10.702;2023-01-04T07:44:36;99294.13;;;6.60;100.00
45621;BME280;31345;51.522;10.702;2023-01-04T07:47:04;99284.00;;;6.53;100.00
45621;BME280;31345;51.522;10.702;2023-01-04T07:49:32;99280.59;;;6.53;100.00
45621;BME280;31345;51.522;10.702;2023-01-04T07:52:01;99284.94;;;6.52;100.00
45621;BME280;31345;51.522;10.702;2023-01-04T07:54:29;99285.41;;;6.61;100.00
45621;BME280;31345;51.522;10.702;2023-01-04T07:56:57;99265.72;;;6.74;100.00
45621;BME280;31345;51.522;10.702;2023-01-04T07:59:25;99275.09;;;6.59;100.00
45621;BME280;31345;51.522;10.702;2023-01-04T08:01:52;99273.22;;;6.63;100.00
45621;BME280;31345;51.522;10.702;2023-01-04T08:04:21;99263.38;;;6.70;100.00
45621;BME280;31345;51.522;10.702;2023-01-04T08:06:49;99270.53;;;6.64;100.00
45621;BME280;31345;51.522;10.702;2023-01-04T08:09:18;99280.03;;;6.65;100.00
45621;BME280;31345;51.522;10.702;2023-01-04T08:11:47;99260.25;;;6.81;100.00
45621;BME280;31345;51.522;10.702;2023-01-04T08:14:14;99251.06;;;6.73;100.00
45621;BME280;31345;51.522;10.702;2023-01-04T08:16:42;99248.13;;;6.81;100.00
45621;BME280;31345;51.522;10.702;2023-01-04T08:19:13;99238.06;;;6.73;100.00
45621;BME280;31345;51.522;10.702;2023-01-04T08:21:41;99244.59;;;6.82;100.00
45621;BME280;31345;51.522;10.702;2023-01-04T08:24:10;99238.81;;;6.95;100.00
45621;BME280;31345;51.522;10.702;2023-01-04T08:26:38;99250.66;;;7.00;100.00
45621;BME280;31345;51.522;10.702;2023-01-04T08:29:08;99252.00;;;6.90;100.00
45621;BME280;31345;51.522;10.702;2023-01-04T08:31:36;99238.34;;;6.86;100.00
45621;BME280;31345;51.522;10.702;2023-01-04T08:34:06;99238.88;;;6.93;100.00
45621;BME280;31345;51.522;10.702;2023-01-04T08:36:35;99241.63;;;6.90;100.00
45621;BME280;31345;51.522;10.702;2023-01-04T08:39:09;99230.78;;;6.99;100.00
45621;BME280;31345;51.522;10.702;2023-01-04T08:41:38;99241.66;;;7.08;100.00
45621;BME280;31345;51.522;10.702;2023-01-04T08:44:19;99233.31;;;7.18;100.00
45621;BME280;31345;51.522;10.702;2023-01-04T08:46:47;99230.25;;;7.10;100.00
45621;BME280;31345;51.522;10.702;2023-01-04T08:49:15;99218.31;;;7.06;100.00
45621;BME280;31345;51.522;10.702;2023-01-04T08:51:44;99219.78;;;7.12;100.00
45621;BME280;31345;51.522;10.702;2023-01-04T08:54:12;99214.59;;;7.12;100.00
45621;BME280;31345;51.522;10.702;2023-01-04T08:56:39;99214.34;;;7.16;100.00
45621;BME280;31345;51.522;10.702;2023-01-04T08:59:09;99212.19;;;7.07;100.00
45621;BME280;31345;51.522;10.702;2023-01-04T09:01:39;99213.50;;;7.16;100.00
45621;BME280;31345;51.522;10.702;2023-01-04T09:04:07;99209.06;;;7.18;100.00
45621;BME280;31345;51.522;10.702;2023-01-04T09:06:36;99217.50;;;7.23;100.00
45621;BME280;31345;51.522;10.702;2023-01-04T09:09:04;99214.19;;;7.20;100.00
45621;BME280;31345;51.522;10.702;2023-01-04T09:11:32;99210.44;;;7.25;100.00
45621;BME280;31345;51.522;10.702;2023-01-04T09:14:00;99212.22;;;7.25;100.00
45621;BME280;31345;51.522;10.702;2023-01-04T09:16:28;99211.97;;;7.29;100.00
45621;BME280;31345;51.522;10.702;2023-01-04T09:18:56;99211.59;;;7.37;100.00
45621;BME280;31345;51.522;10.702;2023-01-04T09:21:24;99208.28;;;7.34;100.00
45621;BME280;31345;51.522;10.702;2023-01-04T09:23:52;99208.16;;;7.37;100.00
45621;BME280;31345;51.522;10.702;2023-01-04T09:26:21;99211.97;;;7.47;100.00
45621;BME280;31345;51.522;10.702;2023-01-04T09:28:50;99205.31;;;7.41;100.00
45621;BME280;31345;51.522;10.702;2023-01-04T09:31:19;99203.72;;;7.39;100.00
45621;BME280;31345;51.522;10.702;2023-01-04T09:33:47;99192.38;;;7.40;100.00
45621;BME280;31345;51.522;10.702;2023-01-04T09:36:17;99190.56;;;7.60;100.00
45621;BME280;31345;51.522;10.702;2023-01-04T09:38:45;99185.66;;;7.53;100.00
45621;BME280;31345;51.522;10.702;2023-01-04T09:41:19;99188.63;;;7.46;100.00
45621;BME280;31345;51.522;10.702;2023-01-04T09:43:51;99173.41;;;7.38;100.00
45621;BME280;31345;51.522;10.702;2023-01-04T09:46:28;99185.09;;;7.47;100.00
45621;BME280;31345;51.522;10.702;2023-01-04T09:49:08;99177.72;;;7.39;100.00
45621;BME280;31345;51.522;10.702;2023-01-04T09:51:40;99182.56;;;7.45;100.00
45621;BME280;31345;51.522;10.702;2023-01-04T09:54:14;99197.03;;;7.51;100.00
45621;BME280;31345;51.522;10.702;2023-01-04T09:56:48;99203.72;;;7.56;100.00
45621;BME280;31345;51.522;10.702;2023-01-04T09:59:17;99196.19;;;7.50;100.00
45621;BME280;31345;51.522;10.702;2023-01-04T10:01:48;99200.72;;;7.47;100.00
45621;BME280;31345;51.522;10.702;2023-01-04T10:04:22;99212.28;;;7.41;100.00
45621;BME280;31345;51.522;10.702;2023-01-04T10:06:53;99211.53;;;7.56;100.00
45621;BME280;31345;51.522;10.702;2023-01-04T10:09:21;99207.66;;;7.46;100.00
45621;BME280;31345;51.522;10.702;2023-01-04T10:12:09;99199.94;;;7.44;100.00
45621;BME280;31345;51.522;10.702;2023-01-04T10:14:54;99183.25;;;7.49;100.00
45621;BME280;31345;51.522;10.702;2023-01-04T10:17:31;99172.41;;;7.40;100.00
45621;BME280;31345;51.522;10.702;2023-01-04T10:20:23;99156.34;;;7.50;100.00
45621;BME280;31345;51.522;10.702;2023-01-04T10:23:01;99183.94;;;7.52;100.00
45621;BME280;31345;51.522;10.702;2023-01-04T10:25:38;99186.44;;;7.55;100.00
45621;BME280;31345;51.522;10.702;2023-01-04T10:28:22;99169.28;;;7.51;100.00
45621;BME280;31345;51.522;10.702;2023-01-04T10:30:56;99184.94;;;7.50;100.00
45621;BME280;31345;51.522;10.702;2023-01-04T10:33:32;99181.50;;;7.49;100.00
45621;BME280;31345;51.522;10.702;2023-01-04T10:36:13;99169.41;;;7.48;100.00
45621;BME280;31345;51.522;10.702;2023-01-04T10:38:45;99175.84;;;7.59;100.00
45621;BME280;31345;51.522;10.702;2023-01-04T10:41:19;99176.09;;;7.54;100.00
45621;BME280;31345;51.522;10.702;2023-01-04T10:44:01;99177.78;;;7.55;100.00
45621;BME280;31345;51.522;10.702;2023-01-04T10:46:34;99167.72;;;7.65;100.00
45621;BME280;31345;51.522;10.702;2023-01-04T10:49:09;99152.41;;;7.59;100.00
45621;BME280;31345;51.522;10.702;2023-01-04T10:51:43;99150.44;;;7.64;100.00
45621;BME280;31345;51.522;10.702;2023-01-04T10:54:21;99134.75;;;7.65;100.00
45621;BME280;31345;51.522;10.702;2023-01-04T10:56:54;99124.50;;;7.78;100.00
45621;BME280;31345;51.522;10.702;2023-01-04T10:59:31;99112.22;;;7.64;100.00
45621;BME280;31345;51.522;10.702;2023-01-04T11:02:06;99107.88;;;7.65;100.00
45621;BME280;31345;51.522;10.702;2023-01-04T11:04:41;99114.00;;;7.80;100.00
45621;BME280;31345;51.522;10.702;2023-01-04T11:07:14;99109.22;;;7.72;100.00
45621;BME280;31345;51.522;10.702;2023-01-04T11:09:50;99091.59;;;7.77;100.00
45621;BME280;31345;51.522;10.702;2023-01-04T11:12:28;99102.00;;;7.77;100.00
45621;BME280;31345;51.522;10.702;2023-01-04T11:14:56;99071.78;;;7.75;100.00
45621;BME280;31345;51.522;10.702;2023-01-04T11:17:24;99075.59;;;7.85;100.00
45621;BME280;31345;51.522;10.702;2023-01-04T11:19:53;99076.00;;;7.93;100.00
45621;BME280;31345;51.522;10.702;2023-01-04T11:22:24;99072.47;;;7.94;100.00
45621;BME280;31345;51.522;10.702;2023-01-04T11:24:59;99067.16;;;7.96;100.00
45621;BME280;31345;51.522;10.702;2023-01-04T11:27:36;99057.69;;;7.95;100.00
45621;BME280;31345;51.522;10.702;2023-01-04T11:30:29;99063.63;;;7.97;100.00
45621;BME280;31345;51.522;10.702;2023-01-04T11:33:17;99068.91;;;8.12;100.00
45621;BME280;31345;51.522;10.702;2023-01-04T11:35:55;99053.00;;;8.16;100.00
45621;BME280;31345;51.522;10.702;2023-01-04T11:38:33;99058.81;;;8.21;100.00
45621;BME280;31345;51.522;10.702;2023-01-04T11:41:04;99053.94;;;8.31;100.00
45621;BME280;31345;51.522;10.702;2023-01-04T11:43:38;99058.31;;;8.15;100.00
45621;BME280;31345;51.522;10.702;2023-01-04T11:46:21;99052.22;;;8.30;100.00
45621;BME280;31345;51.522;10.702;2023-01-04T11:48:54;99057.63;;;8.27;100.00
45621;BME280;31345;51.522;10.702;2023-01-04T11:51:36;99040.16;;;8.29;100.00
45621;BME280;31345;51.522;10.702;2023-01-04T11:54:18;99056.72;;;8.28;100.00
45621;BME280;31345;51.522;10.702;2023-01-04T11:57:00;99040.50;;;8.23;100.00
45621;BME280;31345;51.522;10.702;2023-01-04T11:59:30;99033.00;;;8.33;100.00
45621;BME280;31345;51.522;10.702;2023-01-04T12:02:20;99028.69;;;8.17;100.00
45621;BME280;31345;51.522;10.702;2023-01-04T12:04:48;99013.75;;;8.36;100.00
45621;BME280;31345;51.522;10.702;2023-01-04T12:07:26;99022.28;;;8.23;100.00
45621;BME280;31345;51.522;10.702;2023-01-04T12:09:55;99006.03;;;8.34;100.00
45621;BME280;31345;51.522;10.702;2023-01-04T12:12:27;99012.66;;;8.40;100.00
45621;BME280;31345;51.522;10.702;2023-01-04T12:15:02;99012.25;;;8.31;100.00
45621;BME280;31345;51.522;10.702;2023-01-04T12:17:39;99009.19;;;8.39;100.00
45621;BME280;31345;51.522;10.702;2023-01-04T12:20:13;98993.50;;;8.25;100.00
45621;BME280;31345;51.522;10.702;2023-01-04T12:22:41;98995.72;;;8.47;100.00
45621;BME280;31345;51.522;10.702;2023-01-04T12:25:24;98991.91;;;8.53;100.00
45621;BME280;31345;51.522;10.702;2023-01-04T12:27:54;98980.31;;;8.28;100.00
45621;BME280;31345;51.522;10.702;2023-01-04T12:30:38;98975.50;;;8.36;100.00
45621;BME280;31345;51.522;10.702;2023-01-04T12:33:38;98955.28;;;8.25;100.00
45621;BME280;31345;51.522;10.702;2023-01-04T12:36:06;98961.88;;;8.47;100.00
45621;BME280;31345;51.522;10.702;2023-01-04T12:38:57;98950.38;;;8.35;100.00
45621;BME280;31345;51.522;10.702;2023-01-04T12:47:46;98938.69;;;8.57;100.00
45621;BME280;31345;51.522;10.702;2023-01-04T12:50:31;98933.38;;;8.58;100.00
45621;BME280;31345;51.522;10.702;2023-01-04T12:53:53;98915.72;;;8.64;100.00
45621;BME280;31345;51.522;10.702;2023-01-04T12:56:21;98925.19;;;8.65;100.00
45621;BME280;31345;51.522;10.702;2023-01-04T12:59:04;98919.69;;;8.55;100.00
45621;BME280;31345;51.522;10.702;2023-01-04T13:01:33;98913.63;;;8.54;100.00
45621;BME280;31345;51.522;10.702;2023-01-04T13:04:27;98914.00;;;8.63;100.00
45621;BME280;31345;51.522;10.702;2023-01-04T13:07:00;98912.53;;;8.73;100.00
45621;BME280;31345;51.522;10.702;2023-01-04T13:09:40;98902.75;;;8.62;100.00
45621;BME280;31345;51.522;10.702;2023-01-04T13:12:17;98895.88;;;8.61;100.00
45621;BME280;31345;51.522;10.702;2023-01-04T13:14:49;98897.56;;;8.62;100.00
45621;BME280;31345;51.522;10.702;2023-01-04T13:17:20;98889.91;;;8.73;100.00
45621;BME280;31345;51.522;10.702;2023-01-04T13:19:50;98892.53;;;8.59;100.00
45621;BME280;31345;51.522;10.702;2023-01-04T13:22:24;98878.75;;;8.57;100.00
45621;BME280;31345;51.522;10.702;2023-01-04T13:24:52;98875.78;;;8.63;100.00
45621;BME280;31345;51.522;10.702;2023-01-04T13:27:23;98862.06;;;8.74;100.00
45621;BME280;31345;51.522;10.702;2023-01-04T13:29:51;98872.47;;;8.89;100.00
45621;BME280;31345;51.522;10.702;2023-01-04T13:32:21;98876.56;;;8.93;100.00